CheckWX is a tool to help pilots better visualize weather data.  It is not intended as a substitute for an official pre-flight weather briefing.

01:52:42 UTC

PAJN TAF
Juneau International Airport
Juneau, Alaska, USA
PAJN 182341Z 1900/1924 11018KT P6SM FEW050 SCT090 TEMPO 1900/1904 12012G20KT FM191200 VRB03KT 4SM BCFG SCT001 SCT004 FM191700 VRB06KT P6SM SKC

Mar-19@
00:00 UTC

Mar-19 @ 00:00 UTC

Mar-19@
12:00 UTC

Mar-19 @ 12:00 UTC

PAJN 182341Z 1900/1924 11018KT P6SM FEW050 SCT090
Wind
  • 110° at 18 KTS
Cloud Levels
  • Few at 5,000' AGL
  • Scattered at 9,000' AGL

Mar-19@
00:00 UTC

Mar-19 @ 00:00 UTC

Mar-19@
04:00 UTC

Mar-19 @ 04:00 UTC

TEMPO 1900/1904 12012G20KT

Temporary

Temporary Changes expected for less than half the time period

Wind
  • 120° at 12 KTS
  • {Gusting to 20 KTS

Mar-19@
12:00 UTC

Mar-19 @ 12:00 UTC

Mar-19@
17:00 UTC

Mar-19 @ 17:00 UTC

FM191200 VRB03KT 4SM BCFG SCT001 SCT004

From

From Standard forecast or significant change

Wind
  • Variable at 3 KTS
Conditions
Patches of Fog
Cloud Levels
  • Scattered at 100' AGL
  • Scattered at 400' AGL

Mar-19@
17:00 UTC

Mar-19 @ 17:00 UTC

Mar-20@
00:00 UTC

Mar-20 @ 00:00 UTC

FM191700 VRB06KT P6SM SKC

From

From Standard forecast or significant change

Wind
  • Variable at 6 KTS
Cloud Levels
  • Clear skies